createdAt,value
2018-12-12T00:00:22.811Z,1017.09
2018-12-12T00:01:22.834Z,1017.06
2018-12-12T00:02:22.859Z,1017.09
2018-12-12T00:03:22.882Z,1017.10
2018-12-12T00:04:22.903Z,1017.08
2018-12-12T00:05:22.926Z,1017.05
2018-12-12T00:06:22.949Z,1017.05
2018-12-12T00:07:22.973Z,1017.08
2018-12-12T00:08:22.993Z,1017.17
2018-12-12T00:09:23.014Z,1017.15
2018-12-12T00:10:23.039Z,1017.13
2018-12-12T00:11:23.059Z,1017.07
2018-12-12T00:12:23.082Z,1017.13
2018-12-12T00:13:23.103Z,1017.12
2018-12-12T00:14:23.127Z,1017.09
2018-12-12T00:15:23.148Z,1017.08
2018-12-12T00:16:23.173Z,1017.14
2018-12-12T00:17:23.196Z,1017.08
2018-12-12T00:18:23.218Z,1017.07
2018-12-12T00:19:23.254Z,1017.05
2018-12-12T00:20:23.263Z,1017.09
2018-12-12T00:21:23.284Z,1017.06
2018-12-12T00:22:23.306Z,1017.02
2018-12-12T00:23:23.331Z,1017.07
2018-12-12T00:24:23.353Z,1017.06
2018-12-12T00:25:23.378Z,1017.04
2018-12-12T00:26:23.395Z,1017.06
2018-12-12T00:27:23.418Z,1017.00
2018-12-12T00:28:23.440Z,1017.00
2018-12-12T00:29:23.465Z,1017.03
2018-12-12T00:30:23.486Z,1017.03
2018-12-12T00:31:23.511Z,1017.06
2018-12-12T00:32:23.532Z,1016.99
2018-12-12T00:33:23.556Z,1017.08
2018-12-12T00:34:23.576Z,1017.08
2018-12-12T00:35:23.600Z,1017.11
2018-12-12T00:36:23.623Z,1017.21
2018-12-12T00:37:23.643Z,1017.20
2018-12-12T00:38:23.666Z,1017.24
2018-12-12T00:39:23.688Z,1017.17
2018-12-12T00:40:23.714Z,1017.15
2018-12-12T00:41:23.735Z,1017.17
2018-12-12T00:42:23.758Z,1017.16
2018-12-12T00:43:23.778Z,1017.19
2018-12-12T00:44:23.803Z,1017.18
2018-12-12T00:45:23.823Z,1017.19
2018-12-12T00:46:23.844Z,1017.21
2018-12-12T00:47:23.868Z,1017.24
2018-12-12T00:48:23.890Z,1017.16
2018-12-12T00:49:23.911Z,1017.16
2018-12-12T00:50:23.934Z,1017.15
2018-12-12T00:51:23.961Z,1017.21
2018-12-12T00:52:23.978Z,1017.22
2018-12-12T00:53:24.001Z,1017.23
2018-12-12T00:54:24.025Z,1017.23
2018-12-12T00:55:24.047Z,1017.20
2018-12-12T00:56:24.068Z,1017.18
2018-12-12T00:57:24.094Z,1017.20
2018-12-12T00:58:24.114Z,1017.21
2018-12-12T00:59:24.139Z,1017.20
2018-12-12T01:00:24.159Z,1017.16
2018-12-12T01:01:24.184Z,1017.16
2018-12-12T01:02:24.208Z,1017.17
2018-12-12T01:03:24.227Z,1017.12
2018-12-12T01:04:24.250Z,1017.13
2018-12-12T01:05:24.272Z,1017.15
2018-12-12T01:06:24.294Z,1017.14
2018-12-12T01:07:24.320Z,1017.14
2018-12-12T01:08:24.338Z,1017.15
2018-12-12T01:09:24.365Z,1017.10
2018-12-12T01:10:24.387Z,1017.15
2018-12-12T01:11:24.407Z,1017.14
2018-12-12T01:12:24.434Z,1017.14
2018-12-12T01:13:24.452Z,1017.14
2018-12-12T01:14:24.476Z,1017.18
2018-12-12T01:15:24.500Z,1017.21
2018-12-12T01:16:24.521Z,1017.22
2018-12-12T01:17:24.541Z,1017.22
2018-12-12T01:18:24.567Z,1017.24
2018-12-12T01:19:24.590Z,1017.29
2018-12-12T01:20:24.609Z,1017.26
2018-12-12T01:21:24.635Z,1017.23
2018-12-12T01:22:24.657Z,1017.21
2018-12-12T01:23:24.676Z,1017.30
2018-12-12T01:24:24.699Z,1017.24
2018-12-12T01:25:24.726Z,1017.23
2018-12-12T01:26:24.745Z,1017.27
2018-12-12T01:27:24.767Z,1017.30
2018-12-12T01:28:24.789Z,1017.27
2018-12-12T01:29:24.812Z,1017.28
2018-12-12T01:30:24.837Z,1017.28
2018-12-12T01:31:24.860Z,1017.31
2018-12-12T01:32:24.879Z,1017.33
2018-12-12T01:33:24.904Z,1017.32
2018-12-12T01:34:24.924Z,1017.38
2018-12-12T01:35:24.948Z,1017.35
2018-12-12T01:36:24.971Z,1017.37
2018-12-12T01:37:24.996Z,1017.30
2018-12-12T01:38:25.017Z,1017.31
2018-12-12T01:39:25.039Z,1017.26
2018-12-12T01:40:25.059Z,1017.33
2018-12-12T01:41:25.082Z,1017.35
2018-12-12T01:42:25.107Z,1017.31
2018-12-12T01:43:25.126Z,1017.40
2018-12-12T01:44:25.151Z,1017.40
2018-12-12T01:45:25.174Z,1017.38
2018-12-12T01:46:25.197Z,1017.35
2018-12-12T01:47:25.220Z,1017.36
2018-12-12T01:48:25.241Z,1017.41
2018-12-12T01:49:25.269Z,1017.32
2018-12-12T01:50:25.284Z,1017.32
2018-12-12T01:51:25.307Z,1017.35
2018-12-12T01:52:25.328Z,1017.40
2018-12-12T01:53:25.355Z,1017.37
2018-12-12T01:54:25.377Z,1017.40
2018-12-12T01:55:25.398Z,1017.34
2018-12-12T01:56:25.418Z,1017.32
2018-12-12T01:57:25.445Z,1017.33
2018-12-12T01:58:25.467Z,1017.31
2018-12-12T01:59:25.487Z,1017.36
2018-12-12T02:00:25.509Z,1017.33
2018-12-12T02:01:25.531Z,1017.31
2018-12-12T02:02:25.557Z,1017.32
2018-12-12T02:03:25.579Z,1017.28
2018-12-12T02:04:25.600Z,1017.34
2018-12-12T02:05:25.624Z,1017.30
2018-12-12T02:06:25.645Z,1017.33
2018-12-12T02:07:25.667Z,1017.33
2018-12-12T02:08:25.691Z,1017.33
2018-12-12T02:09:25.759Z,1017.30
2018-12-12T02:10:25.733Z,1017.39
2018-12-12T02:11:25.756Z,1017.35
2018-12-12T02:12:25.780Z,1017.38
2018-12-12T02:13:25.803Z,1017.40
2018-12-12T02:14:25.827Z,1017.40
2018-12-12T02:15:25.850Z,1017.41
2018-12-12T02:16:25.869Z,1017.43
2018-12-12T02:17:25.891Z,1017.42
2018-12-12T02:18:25.916Z,1017.47
2018-12-12T02:19:25.939Z,1017.48
2018-12-12T02:20:25.957Z,1017.53
2018-12-12T02:21:25.982Z,1017.55
2018-12-12T02:22:26.003Z,1017.57
2018-12-12T02:23:26.027Z,1017.56
2018-12-12T02:24:26.051Z,1017.58
2018-12-12T02:25:26.074Z,1017.63
2018-12-12T02:26:26.093Z,1017.60
2018-12-12T02:27:26.119Z,1017.64
2018-12-12T02:28:26.140Z,1017.63
2018-12-12T02:29:26.162Z,1017.65
2018-12-12T02:30:26.187Z,1017.71
2018-12-12T02:31:26.211Z,1017.69
2018-12-12T02:32:26.233Z,1017.66
2018-12-12T02:33:26.251Z,1017.70
2018-12-12T02:34:26.274Z,1017.74
2018-12-12T02:35:26.299Z,1017.66
2018-12-12T02:36:26.321Z,1017.66
2018-12-12T02:37:26.342Z,1017.68
2018-12-12T02:38:26.365Z,1017.67
2018-12-12T02:39:26.394Z,1017.65
2018-12-12T02:40:26.412Z,1017.68
2018-12-12T02:41:26.443Z,1017.65
2018-12-12T02:42:26.463Z,1017.64
2018-12-12T02:43:26.478Z,1017.63
2018-12-12T02:44:26.500Z,1017.59
2018-12-12T02:45:26.526Z,1017.56
2018-12-12T02:46:26.548Z,1017.55
2018-12-12T02:47:26.585Z,1017.54
2018-12-12T02:48:26.593Z,1017.56
2018-12-12T02:49:26.612Z,1017.60
2018-12-12T02:50:26.635Z,1017.58
2018-12-12T02:51:26.662Z,1017.58
2018-12-12T02:52:26.680Z,1017.61
2018-12-12T02:53:26.703Z,1017.56
2018-12-12T02:54:26.726Z,1017.57
2018-12-12T02:55:26.749Z,1017.56
2018-12-12T02:56:26.771Z,1017.59
2018-12-12T02:57:26.792Z,1017.56
2018-12-12T02:58:26.818Z,1017.59
2018-12-12T02:59:26.841Z,1017.62
2018-12-12T03:00:26.863Z,1017.63
2018-12-12T03:01:26.882Z,1017.64
2018-12-12T03:02:26.907Z,1017.64
2018-12-12T03:03:26.937Z,1017.62
2018-12-12T03:04:26.955Z,1017.65
2018-12-12T03:05:26.976Z,1017.68
2018-12-12T03:06:26.997Z,1017.62
2018-12-12T03:07:27.025Z,1017.61
2018-12-12T03:08:27.042Z,1017.63
2018-12-12T03:09:27.071Z,1017.66
2018-12-12T03:10:27.101Z,1017.64
2018-12-12T03:11:27.112Z,1017.71
2018-12-12T03:12:27.134Z,1017.68
2018-12-12T03:13:27.159Z,1017.72
2018-12-12T03:14:27.186Z,1017.69
2018-12-12T03:15:28.286Z,1017.67
2018-12-12T03:16:27.224Z,1017.78
2018-12-12T03:17:27.248Z,1017.78
2018-12-12T03:18:27.271Z,1017.79
2018-12-12T03:19:27.291Z,1017.81
2018-12-12T03:20:27.313Z,1017.81
2018-12-12T03:21:27.341Z,1017.79
2018-12-12T03:22:27.359Z,1017.84
2018-12-12T03:23:27.384Z,1017.86
2018-12-12T03:24:27.403Z,1017.86
2018-12-12T03:25:27.425Z,1017.88
2018-12-12T03:26:27.448Z,1017.95
2018-12-12T03:27:27.472Z,1017.97
2018-12-12T03:28:27.495Z,1017.99
2018-12-12T03:29:27.515Z,1017.93
2018-12-12T03:30:27.540Z,1017.97
2018-12-12T03:31:27.564Z,1017.90
2018-12-12T03:32:27.588Z,1017.92
2018-12-12T03:33:27.605Z,1017.97
2018-12-12T03:34:27.630Z,1017.91
2018-12-12T03:35:27.651Z,1017.93
2018-12-12T03:36:27.678Z,1017.90
2018-12-12T03:37:27.696Z,1017.89
2018-12-12T03:38:27.721Z,1017.91
2018-12-12T03:39:27.745Z,1017.93
2018-12-12T03:40:27.764Z,1017.89
2018-12-12T03:41:27.788Z,1017.87
2018-12-12T03:42:27.810Z,1017.88
2018-12-12T03:43:27.830Z,1017.93
2018-12-12T03:44:27.856Z,1017.87
2018-12-12T03:45:27.877Z,1017.91
2018-12-12T03:46:27.899Z,1017.90
2018-12-12T03:47:27.923Z,1017.87
2018-12-12T03:48:27.943Z,1017.86
2018-12-12T03:49:27.967Z,1017.90
2018-12-12T03:50:27.992Z,1017.89
2018-12-12T03:51:28.013Z,1017.87
2018-12-12T03:52:28.035Z,1017.91
2018-12-12T03:53:28.059Z,1017.90
2018-12-12T03:54:28.082Z,1017.93
2018-12-12T03:55:28.105Z,1017.87
2018-12-12T03:56:28.126Z,1017.86
2018-12-12T03:57:28.147Z,1017.90
2018-12-12T03:58:28.169Z,1017.89
2018-12-12T03:59:28.194Z,1017.85
2018-12-12T04:00:28.219Z,1017.80
2018-12-12T04:01:28.239Z,1017.83
2018-12-12T04:02:28.262Z,1017.80
2018-12-12T04:03:28.286Z,1017.81
2018-12-12T04:04:28.306Z,1017.82
2018-12-12T04:05:28.328Z,1017.80
2018-12-12T04:06:28.351Z,1017.80
2018-12-12T04:07:28.376Z,1017.84
2018-12-12T04:08:28.394Z,1017.79
2018-12-12T04:09:28.419Z,1017.80
2018-12-12T04:10:28.441Z,1017.82
2018-12-12T04:11:28.463Z,1017.87
2018-12-12T04:12:28.488Z,1017.83
2018-12-12T04:13:28.508Z,1017.83
2018-12-12T04:14:28.529Z,1017.88
2018-12-12T04:15:28.552Z,1017.86
2018-12-12T04:16:28.575Z,1017.85
2018-12-12T04:17:28.601Z,1017.83
2018-12-12T04:18:28.625Z,1017.80
2018-12-12T04:19:28.645Z,1017.83
2018-12-12T04:20:28.666Z,1017.76
2018-12-12T04:21:28.686Z,1017.82
2018-12-12T04:22:28.712Z,1017.77
2018-12-12T04:23:28.736Z,1017.76
2018-12-12T04:24:28.758Z,1017.79
2018-12-12T04:25:28.780Z,1017.82
2018-12-12T04:26:28.803Z,1017.78
2018-12-12T04:27:28.824Z,1017.79
2018-12-12T04:28:28.848Z,1017.84
2018-12-12T04:29:28.871Z,1017.84
2018-12-12T04:30:28.893Z,1017.86
2018-12-12T04:31:28.916Z,1017.90
2018-12-12T04:32:28.936Z,1017.87
2018-12-12T04:33:28.962Z,1017.87
2018-12-12T04:34:28.982Z,1017.94
2018-12-12T04:35:29.009Z,1017.93
2018-12-12T04:36:29.030Z,1017.92
2018-12-12T04:37:29.054Z,1017.92
2018-12-12T04:38:29.075Z,1017.89
2018-12-12T04:39:29.096Z,1017.90
2018-12-12T04:40:29.124Z,1017.88
2018-12-12T04:41:29.144Z,1017.90
2018-12-12T04:42:29.164Z,1017.90
2018-12-12T04:43:29.184Z,1017.88
2018-12-12T04:44:29.208Z,1017.93
2018-12-12T04:45:29.231Z,1017.96
2018-12-12T04:46:29.254Z,1017.96
2018-12-12T04:47:29.277Z,1017.95
2018-12-12T04:48:29.297Z,1017.94
2018-12-12T04:49:29.320Z,1017.95
2018-12-12T04:50:29.410Z,1017.89
2018-12-12T04:51:29.365Z,1017.91
2018-12-12T04:52:29.389Z,1017.96
2018-12-12T04:53:29.444Z,1017.94
2018-12-12T04:54:29.431Z,1017.94
2018-12-12T04:55:29.457Z,1017.92
2018-12-12T04:56:29.477Z,1017.93
2018-12-12T04:57:29.498Z,1017.86
2018-12-12T04:58:29.521Z,1017.85
2018-12-12T04:59:29.544Z,1017.92
2018-12-12T05:00:29.574Z,1017.88
2018-12-12T05:01:29.588Z,1017.89
2018-12-12T05:02:29.612Z,1017.91
2018-12-12T05:03:29.638Z,1017.87
2018-12-12T05:04:29.660Z,1017.86
2018-12-12T05:05:29.682Z,1017.86
2018-12-12T05:06:29.702Z,1017.89
2018-12-12T05:07:29.729Z,1017.83
2018-12-12T05:08:29.750Z,1017.88
2018-12-12T05:09:29.771Z,1017.83
2018-12-12T05:10:29.794Z,1017.81
2018-12-12T05:11:29.817Z,1017.86
2018-12-12T05:12:29.839Z,1017.86
2018-12-12T05:13:29.859Z,1017.86
2018-12-12T05:14:29.880Z,1017.91
2018-12-12T05:15:29.926Z,1017.88
2018-12-12T05:16:29.930Z,1017.86
2018-12-12T05:17:29.949Z,1017.92
2018-12-12T05:18:29.973Z,1017.91
2018-12-12T05:19:30.000Z,1017.96
2018-12-12T05:20:30.016Z,1018.00
2018-12-12T05:21:30.037Z,1018.04
2018-12-12T05:22:30.061Z,1018.05
2018-12-12T05:23:30.085Z,1018.08
2018-12-12T05:24:30.104Z,1018.01
2018-12-12T05:25:30.128Z,1018.09
2018-12-12T05:26:30.149Z,1018.08
2018-12-12T05:27:30.174Z,1018.10
2018-12-12T05:28:30.255Z,1018.16
2018-12-12T05:29:30.218Z,1018.15
2018-12-12T05:30:30.238Z,1018.12
2018-12-12T05:31:30.260Z,1018.19
2018-12-12T05:32:30.286Z,1018.10
2018-12-12T05:33:30.309Z,1018.16
2018-12-12T05:34:30.329Z,1018.15
2018-12-12T05:35:30.352Z,1018.17
2018-12-12T05:36:30.375Z,1018.18
2018-12-12T05:37:30.397Z,1018.16
2018-12-12T05:38:30.415Z,1018.13
2018-12-12T05:39:30.440Z,1018.16
2018-12-12T05:40:30.463Z,1018.14
2018-12-12T05:41:30.481Z,1018.16
2018-12-12T05:42:30.504Z,1018.17
2018-12-12T05:43:30.532Z,1018.20
2018-12-12T05:44:30.553Z,1018.13
2018-12-12T05:45:30.571Z,1018.17
2018-12-12T05:46:30.597Z,1018.17
2018-12-12T05:47:30.621Z,1018.17
2018-12-12T05:48:30.641Z,1018.13
2018-12-12T05:49:30.662Z,1018.14
2018-12-12T05:50:30.684Z,1018.10
2018-12-12T05:51:30.705Z,1018.11
2018-12-12T05:52:30.726Z,1018.10
2018-12-12T05:53:30.747Z,1018.14
2018-12-12T05:54:30.773Z,1018.17
2018-12-12T05:55:30.796Z,1018.15
2018-12-12T05:56:30.815Z,1018.16
2018-12-12T05:57:30.840Z,1018.15
2018-12-12T05:58:30.862Z,1018.24
2018-12-12T05:59:30.883Z,1018.21
2018-12-12T06:00:30.906Z,1018.22
2018-12-12T06:01:31.042Z,1018.20
2018-12-12T06:02:31.010Z,1018.20
2018-12-12T06:03:30.974Z,1018.21
2018-12-12T06:04:30.995Z,1018.25
2018-12-12T06:05:31.015Z,1018.28
2018-12-12T06:06:31.040Z,1018.31
2018-12-12T06:07:31.061Z,1018.30
2018-12-12T06:08:31.082Z,1018.29
2018-12-12T06:09:31.109Z,1018.40
2018-12-12T06:10:31.129Z,1018.33
2018-12-12T06:11:31.152Z,1018.39
2018-12-12T06:12:31.175Z,1018.37
2018-12-12T06:13:31.196Z,1018.39
2018-12-12T06:14:31.219Z,1018.42
2018-12-12T06:15:31.247Z,1018.41
2018-12-12T06:16:31.263Z,1018.42
2018-12-12T06:17:31.284Z,1018.41
2018-12-12T06:18:31.309Z,1018.40
2018-12-12T06:19:31.331Z,1018.39
2018-12-12T06:20:31.352Z,1018.38
2018-12-12T06:21:31.378Z,1018.34
2018-12-12T06:22:37.367Z,1018.36
2018-12-12T06:23:31.418Z,1018.30
2018-12-12T06:24:31.444Z,1018.30
2018-12-12T06:25:31.463Z,1018.33
2018-12-12T06:26:37.141Z,1018.35
2018-12-12T06:27:31.508Z,1018.38
2018-12-12T06:28:31.530Z,1018.36
2018-12-12T06:29:31.554Z,1018.34
2018-12-12T06:30:31.622Z,1018.31
2018-12-12T06:31:31.599Z,1018.30
2018-12-12T06:32:31.621Z,1018.32
2018-12-12T06:33:31.641Z,1018.30
2018-12-12T06:34:31.664Z,1018.33
2018-12-12T06:35:31.685Z,1018.34
2018-12-12T06:36:31.709Z,1018.33
2018-12-12T06:37:31.733Z,1018.30
2018-12-12T06:38:31.755Z,1018.36
2018-12-12T06:39:31.780Z,1018.30
2018-12-12T06:40:31.798Z,1018.33
2018-12-12T06:41:31.822Z,1018.35
2018-12-12T06:42:31.844Z,1018.35
2018-12-12T06:43:31.868Z,1018.39
2018-12-12T06:44:31.888Z,1018.43
2018-12-12T06:45:31.911Z,1018.40
2018-12-12T06:46:31.933Z,1018.43
2018-12-12T06:47:31.955Z,1018.39
2018-12-12T06:48:31.979Z,1018.48
2018-12-12T06:49:32.000Z,1018.48
2018-12-12T06:50:32.024Z,1018.47
2018-12-12T06:51:32.045Z,1018.47
2018-12-12T06:52:32.065Z,1018.41
2018-12-12T06:53:32.087Z,1018.48
2018-12-12T06:54:32.112Z,1018.47
2018-12-12T06:55:32.135Z,1018.45
2018-12-12T06:56:32.156Z,1018.49
2018-12-12T06:57:32.178Z,1018.51
2018-12-12T06:58:32.198Z,1018.53
2018-12-12T06:59:32.224Z,1018.55
2018-12-12T07:00:32.243Z,1018.51
2018-12-12T07:01:32.265Z,1018.58
2018-12-12T07:02:32.290Z,1018.52
2018-12-12T07:03:32.311Z,1018.53
2018-12-12T07:04:32.335Z,1018.52
2018-12-12T07:05:32.355Z,1018.52
2018-12-12T07:06:32.379Z,1018.50
2018-12-12T07:07:32.400Z,1018.51
2018-12-12T07:08:32.424Z,1018.50
2018-12-12T07:09:32.445Z,1018.51
2018-12-12T07:10:32.467Z,1018.53
2018-12-12T07:11:32.491Z,1018.58
2018-12-12T07:12:32.513Z,1018.57
2018-12-12T07:13:35.658Z,1018.57
2018-12-12T07:14:32.559Z,1018.60
2018-12-12T07:15:32.579Z,1018.62
2018-12-12T07:16:32.601Z,1018.62
2018-12-12T07:17:32.626Z,1018.65
2018-12-12T07:18:32.650Z,1018.64
2018-12-12T07:19:32.670Z,1018.61
2018-12-12T07:20:32.693Z,1018.63
2018-12-12T07:21:32.714Z,1018.64
2018-12-12T07:22:32.739Z,1018.65
2018-12-12T07:23:32.763Z,1018.68
2018-12-12T07:24:32.783Z,1018.63
2018-12-12T07:25:32.803Z,1018.64
2018-12-12T07:26:32.828Z,1018.62
2018-12-12T07:27:32.851Z,1018.64
2018-12-12T07:28:32.872Z,1018.62
2018-12-12T07:29:32.895Z,1018.67
2018-12-12T07:30:32.919Z,1018.63
2018-12-12T07:31:32.943Z,1018.70
2018-12-12T07:32:32.960Z,1018.70
2018-12-12T07:33:32.985Z,1018.72
2018-12-12T07:34:33.010Z,1018.77
2018-12-12T07:35:33.030Z,1018.69
2018-12-12T07:36:33.050Z,1018.70
2018-12-12T07:37:33.075Z,1018.75
2018-12-12T07:38:33.098Z,1018.73
2018-12-12T07:39:33.118Z,1018.72
2018-12-12T07:40:33.147Z,1018.72
2018-12-12T07:41:33.165Z,1018.72
2018-12-12T07:42:33.187Z,1018.78
2018-12-12T07:43:33.208Z,1018.73
2018-12-12T07:44:33.230Z,1018.77
2018-12-12T07:45:33.253Z,1018.78
2018-12-12T07:46:33.277Z,1018.81
2018-12-12T07:47:33.298Z,1018.80
2018-12-12T07:48:33.424Z,1018.80
2018-12-12T07:49:33.342Z,1018.79
2018-12-12T07:50:33.367Z,1018.87
2018-12-12T07:51:33.392Z,1018.87
2018-12-12T07:52:33.411Z,1018.93
2018-12-12T07:53:33.432Z,1018.90
2018-12-12T07:54:33.456Z,1018.89
2018-12-12T07:55:33.477Z,1018.91
2018-12-12T07:56:33.498Z,1018.92
2018-12-12T07:57:34.347Z,1018.91
2018-12-12T07:58:33.545Z,1018.94
2018-12-12T07:59:33.570Z,1018.93
2018-12-12T08:00:33.589Z,1018.91
2018-12-12T08:01:33.614Z,1018.98
2018-12-12T08:02:33.640Z,1018.95
2018-12-12T08:03:33.661Z,1018.99
2018-12-12T08:04:33.681Z,1018.94
2018-12-12T08:05:33.702Z,1018.97
2018-12-12T08:06:33.725Z,1018.94
2018-12-12T08:07:33.750Z,1018.98
2018-12-12T08:08:33.769Z,1018.97
2018-12-12T08:09:33.794Z,1019.00
2018-12-12T08:10:33.815Z,1019.03
2018-12-12T08:11:33.841Z,1019.01
2018-12-12T08:12:33.861Z,1019.08
2018-12-12T08:13:33.882Z,1019.09
2018-12-12T08:14:33.906Z,1019.11
2018-12-12T08:15:34.653Z,1019.09
2018-12-12T08:16:33.952Z,1019.07
2018-12-12T08:17:33.972Z,1019.10
2018-12-12T08:18:33.997Z,1019.08
2018-12-12T08:19:34.018Z,1019.09
2018-12-12T08:20:34.039Z,1019.09
2018-12-12T08:21:34.064Z,1019.12
2018-12-12T08:22:34.089Z,1019.15
2018-12-12T08:23:34.108Z,1019.11
2018-12-12T08:24:34.132Z,1019.13
2018-12-12T08:25:34.155Z,1019.08
2018-12-12T08:26:34.175Z,1019.09
2018-12-12T08:27:34.200Z,1019.10
2018-12-12T08:28:34.218Z,1019.12
2018-12-12T08:29:34.243Z,1019.09
2018-12-12T08:30:34.268Z,1019.12
2018-12-12T08:31:34.289Z,1019.12
2018-12-12T08:32:34.310Z,1019.15
2018-12-12T08:33:34.336Z,1019.15
2018-12-12T08:34:34.356Z,1019.14
2018-12-12T08:35:34.378Z,1019.10
2018-12-12T08:36:34.400Z,1019.10
2018-12-12T08:37:34.425Z,1019.13
2018-12-12T08:38:34.451Z,1019.17
2018-12-12T08:39:34.471Z,1019.11
2018-12-12T08:40:34.490Z,1019.20
2018-12-12T08:41:34.516Z,1019.16
2018-12-12T08:42:34.539Z,1019.15
2018-12-12T08:43:34.562Z,1019.12
2018-12-12T08:44:34.581Z,1019.20
2018-12-12T08:45:34.604Z,1019.16
2018-12-12T08:46:34.629Z,1019.15
2018-12-12T08:47:34.655Z,1019.17
2018-12-12T08:48:34.673Z,1019.13
2018-12-12T08:49:34.695Z,1019.20
2018-12-12T08:50:34.717Z,1019.22
2018-12-12T08:51:34.742Z,1019.23
2018-12-12T08:52:34.764Z,1019.19
2018-12-12T08:53:34.785Z,1019.18
2018-12-12T08:54:34.810Z,1019.19
2018-12-12T08:55:34.833Z,1019.23
2018-12-12T08:56:34.854Z,1019.21
2018-12-12T08:57:34.875Z,1019.21
2018-12-12T08:58:34.899Z,1019.24
2018-12-12T08:59:34.924Z,1019.23
2018-12-12T09:00:34.945Z,1019.27
2018-12-12T09:01:34.971Z,1019.22
2018-12-12T09:02:34.996Z,1019.23
2018-12-12T09:03:35.014Z,1019.24
2018-12-12T09:04:35.034Z,1019.26
2018-12-12T09:05:35.059Z,1019.25
2018-12-12T09:06:35.083Z,1019.27
2018-12-12T09:07:35.108Z,1019.22
2018-12-12T09:08:35.126Z,1019.25
2018-12-12T09:09:35.150Z,1019.22
2018-12-12T09:10:35.173Z,1019.24
2018-12-12T09:11:35.196Z,1019.26
2018-12-12T09:12:35.218Z,1019.23
2018-12-12T09:13:35.242Z,1019.26
2018-12-12T09:14:35.265Z,1019.30
2018-12-12T09:15:35.288Z,1019.23
2018-12-12T09:16:35.307Z,1019.25
2018-12-12T09:17:35.331Z,1019.31
2018-12-12T09:18:35.354Z,1019.25
2018-12-12T09:19:35.381Z,1019.32
2018-12-12T09:20:35.401Z,1019.30
2018-12-12T09:21:35.887Z,1019.33
2018-12-12T09:22:35.445Z,1019.34
2018-12-12T09:23:35.469Z,1019.33
2018-12-12T09:24:35.490Z,1019.34
2018-12-12T09:25:35.514Z,1019.41
2018-12-12T09:26:35.536Z,1019.36
2018-12-12T09:27:35.562Z,1019.35
2018-12-12T09:28:35.582Z,1019.35
2018-12-12T09:29:35.605Z,1019.41
2018-12-12T09:30:35.630Z,1019.38
2018-12-12T09:31:35.651Z,1019.42
2018-12-12T09:32:35.675Z,1019.38
2018-12-12T09:33:35.700Z,1019.44
2018-12-12T09:34:35.722Z,1019.46
2018-12-12T09:35:35.749Z,1019.45
2018-12-12T09:36:35.768Z,1019.48
2018-12-12T09:37:35.790Z,1019.45
2018-12-12T09:38:35.813Z,1019.48
2018-12-12T09:39:35.836Z,1019.45
2018-12-12T09:40:35.860Z,1019.46
2018-12-12T09:41:35.883Z,1019.50
2018-12-12T09:42:35.906Z,1019.49
2018-12-12T09:43:35.931Z,1019.44
2018-12-12T09:44:35.953Z,1019.50
2018-12-12T09:45:35.975Z,1019.43
2018-12-12T09:46:35.997Z,1019.44
2018-12-12T09:47:36.023Z,1019.44
2018-12-12T09:48:36.046Z,1019.43
2018-12-12T09:49:36.067Z,1019.40
2018-12-12T09:50:36.093Z,1019.41
2018-12-12T09:51:36.115Z,1019.40
2018-12-12T09:52:36.136Z,1019.43
2018-12-12T09:53:36.163Z,1019.45
2018-12-12T09:54:36.185Z,1019.40
2018-12-12T09:55:36.205Z,1019.39
2018-12-12T09:56:36.231Z,1019.46
2018-12-12T09:57:36.255Z,1019.43
2018-12-12T09:58:36.280Z,1019.36
2018-12-12T09:59:36.300Z,1019.37
2018-12-12T10:00:36.322Z,1019.40
2018-12-12T10:01:36.345Z,1019.38
2018-12-12T10:02:36.371Z,1019.43
2018-12-12T10:03:36.395Z,1019.42
2018-12-12T10:04:36.418Z,1019.42
2018-12-12T10:05:36.441Z,1019.43
2018-12-12T10:06:36.464Z,1019.45
2018-12-12T10:07:36.486Z,1019.49
2018-12-12T10:08:36.510Z,1019.51
2018-12-12T10:09:36.531Z,1019.49
2018-12-12T10:10:36.555Z,1019.52
2018-12-12T10:11:36.580Z,1019.48
2018-12-12T10:12:36.603Z,1019.50
2018-12-12T10:13:36.626Z,1019.47
2018-12-12T10:14:36.648Z,1019.48
2018-12-12T10:15:36.673Z,1019.51
2018-12-12T10:16:36.694Z,1019.45
2018-12-12T10:17:36.722Z,1019.51
2018-12-12T10:18:36.747Z,1019.48
2018-12-12T10:19:36.764Z,1019.47
2018-12-12T10:20:36.789Z,1019.45
2018-12-12T10:21:36.813Z,1019.48
2018-12-12T10:22:36.836Z,1019.49
2018-12-12T10:23:36.860Z,1019.47
2018-12-12T10:24:36.882Z,1019.49
2018-12-12T10:25:36.902Z,1019.45
2018-12-12T10:26:36.927Z,1019.46
2018-12-12T10:27:36.953Z,1019.46
2018-12-12T10:28:36.976Z,1019.43
2018-12-12T10:29:38.360Z,1019.46
2018-12-12T10:30:37.023Z,1019.45
2018-12-12T10:31:37.044Z,1019.42
2018-12-12T10:32:37.068Z,1019.40
2018-12-12T10:33:37.851Z,1019.43
2018-12-12T10:34:37.145Z,1019.44
2018-12-12T10:35:37.140Z,1019.40
2018-12-12T10:36:37.161Z,1019.40
2018-12-12T10:37:37.192Z,1019.40
2018-12-12T10:38:37.207Z,1019.35
2018-12-12T10:39:37.232Z,1019.32
2018-12-12T10:40:37.254Z,1019.29
2018-12-12T10:41:37.281Z,1019.34
2018-12-12T10:42:37.303Z,1019.34
2018-12-12T10:43:37.326Z,1019.40
2018-12-12T10:44:37.348Z,1019.37
2018-12-12T10:45:37.371Z,1019.37
2018-12-12T10:46:37.399Z,1019.36
2018-12-12T10:47:37.421Z,1019.39
2018-12-12T10:48:37.442Z,1019.39
2018-12-12T10:49:37.466Z,1019.31
2018-12-12T10:50:37.492Z,1019.32
2018-12-12T10:51:37.520Z,1019.34
2018-12-12T10:52:37.537Z,1019.30
2018-12-12T10:53:37.563Z,1019.36
2018-12-12T10:54:37.587Z,1019.35
2018-12-12T10:55:37.611Z,1019.30
2018-12-12T10:56:37.632Z,1019.35
2018-12-12T10:57:37.658Z,1019.33
2018-12-12T10:58:38.336Z,1019.33
2018-12-12T10:59:37.706Z,1019.30
2018-12-12T11:00:37.728Z,1019.28
2018-12-12T11:01:37.754Z,1019.25
2018-12-12T11:02:37.780Z,1019.24
2018-12-12T11:03:43.948Z,1019.27
2018-12-12T11:04:37.825Z,1019.25
2018-12-12T11:05:37.848Z,1019.28
2018-12-12T11:06:37.873Z,1019.27
2018-12-12T11:07:37.900Z,1019.20
2018-12-12T11:08:37.923Z,1019.22
2018-12-12T11:09:37.948Z,1019.24
2018-12-12T11:10:37.971Z,1019.23
2018-12-12T11:11:37.995Z,1019.19
2018-12-12T11:12:38.020Z,1019.21
2018-12-12T11:13:38.044Z,1019.21
2018-12-12T11:14:38.067Z,1019.22
2018-12-12T11:15:38.094Z,1019.22
2018-12-12T11:16:38.116Z,1019.20
2018-12-12T11:17:38.140Z,1019.24
2018-12-12T11:18:38.169Z,1019.23
2018-12-12T11:19:38.189Z,1019.22
2018-12-12T11:20:38.215Z,1019.18
2018-12-12T11:21:38.239Z,1019.22
2018-12-12T11:22:38.262Z,1019.25
2018-12-12T11:23:38.287Z,1019.28
2018-12-12T11:24:38.311Z,1019.19
2018-12-12T11:25:38.337Z,1019.14
2018-12-12T11:26:38.362Z,1019.13
2018-12-12T11:27:38.386Z,1019.20
2018-12-12T11:28:38.407Z,1019.17
2018-12-12T11:29:38.434Z,1019.16
2018-12-12T11:30:38.457Z,1019.17
2018-12-12T11:31:38.484Z,1019.10
2018-12-12T11:32:38.507Z,1019.14
2018-12-12T11:33:38.529Z,1019.11
2018-12-12T11:34:38.557Z,1019.17
2018-12-12T11:35:38.579Z,1019.18
2018-12-12T11:36:38.603Z,1019.13
2018-12-12T11:37:38.627Z,1019.10
2018-12-12T11:38:38.658Z,1019.15
2018-12-12T11:39:38.679Z,1019.15
2018-12-12T11:40:38.700Z,1019.14
2018-12-12T11:41:38.724Z,1019.19
2018-12-12T11:42:38.750Z,1019.23
2018-12-12T11:43:38.774Z,1019.25
2018-12-12T11:44:38.801Z,1019.19
2018-12-12T11:45:38.820Z,1019.17
2018-12-12T11:46:38.845Z,1019.13
2018-12-12T11:47:38.872Z,1019.10
2018-12-12T11:48:38.897Z,1019.10
2018-12-12T11:49:38.917Z,1019.08
2018-12-12T11:50:38.942Z,1019.10
2018-12-12T11:51:38.966Z,1019.10
2018-12-12T11:52:38.989Z,1019.12
2018-12-12T11:53:39.017Z,1019.13
2018-12-12T11:54:39.045Z,1019.12
2018-12-12T11:55:39.065Z,1019.16
2018-12-12T11:56:39.089Z,1019.19
2018-12-12T11:57:39.113Z,1019.13
2018-12-12T11:58:39.137Z,1019.15
2018-12-12T11:59:39.205Z,1019.19
2018-12-12T12:00:39.184Z,1019.03
2018-12-12T12:01:39.209Z,1019.06
2018-12-12T12:02:39.231Z,1019.07
2018-12-12T12:03:39.255Z,1019.08
2018-12-12T12:04:39.279Z,1019.04
2018-12-12T12:05:39.303Z,1019.06